createdAt,value
2018-09-19T00:00:14.921Z,59.10
2018-09-19T00:02:51.468Z,59.30
2018-09-19T00:05:27.783Z,59.90
2018-09-19T00:08:04.346Z,60.70
2018-09-19T00:10:40.944Z,61.20
2018-09-19T00:13:17.271Z,61.00
2018-09-19T00:15:54.413Z,61.10
2018-09-19T00:18:30.901Z,61.50
2018-09-19T00:21:07.333Z,62.10
2018-09-19T00:23:43.830Z,62.00
2018-09-19T00:26:20.257Z,62.10
2018-09-19T00:28:56.730Z,62.00
2018-09-19T00:31:33.747Z,62.10
2018-09-19T00:34:10.207Z,62.40
2018-09-19T00:36:46.527Z,63.20
2018-09-19T00:39:23.084Z,63.90
2018-09-19T00:41:59.557Z,63.90
2018-09-19T00:44:36.045Z,64.40
2018-09-19T00:47:12.528Z,64.30
2018-09-19T00:49:49.010Z,64.10
2018-09-19T00:52:25.465Z,64.60
2018-09-19T00:55:01.942Z,64.40
2018-09-19T00:57:38.386Z,65.00
2018-09-19T01:00:14.936Z,64.60
2018-09-19T01:02:51.468Z,64.60
2018-09-19T01:05:27.932Z,64.80
2018-09-19T01:08:04.537Z,64.90
2018-09-19T01:10:41.051Z,64.60
2018-09-19T01:13:17.530Z,64.00
2018-09-19T01:15:54.071Z,64.30
2018-09-19T01:18:30.570Z,64.50
2018-09-19T01:21:07.154Z,64.70
2018-09-19T01:23:43.489Z,65.10
2018-09-19T01:26:19.936Z,65.60
2018-09-19T01:28:56.418Z,65.70
2018-09-19T01:31:32.864Z,65.70
2018-09-19T01:34:09.239Z,65.80
2018-09-19T01:36:45.714Z,66.20
2018-09-19T01:39:21.997Z,66.10
2018-09-19T01:41:58.304Z,66.00
2018-09-19T01:44:34.720Z,66.20
2018-09-19T01:47:11.199Z,66.10
2018-09-19T01:49:47.670Z,65.00
2018-09-19T01:52:24.080Z,66.00
2018-09-19T01:55:00.585Z,65.70
2018-09-19T01:57:37.058Z,66.20
2018-09-19T02:00:13.511Z,67.20
2018-09-19T02:02:49.967Z,67.00
2018-09-19T02:05:26.544Z,67.40
2018-09-19T02:08:02.916Z,67.70
2018-09-19T02:10:39.425Z,67.20
2018-09-19T02:13:15.738Z,67.20
2018-09-19T02:15:52.172Z,66.90
2018-09-19T02:18:28.639Z,65.70
2018-09-19T02:21:05.179Z,67.60
2018-09-19T02:23:41.487Z,68.20
2018-09-19T02:26:17.838Z,68.40
2018-09-19T02:28:54.298Z,68.40
2018-09-19T02:31:30.725Z,68.10
2018-09-19T02:34:07.460Z,67.90
2018-09-19T02:36:43.883Z,68.10
2018-09-19T02:39:20.194Z,68.30
2018-09-19T02:41:56.576Z,67.90
2018-09-19T02:44:33.383Z,68.30
2018-09-19T02:47:10.307Z,68.00
2018-09-19T02:49:46.831Z,68.00
2018-09-19T02:52:23.310Z,68.40
2018-09-19T02:54:59.887Z,68.10
2018-09-19T02:57:36.924Z,67.40
2018-09-19T03:00:13.591Z,67.90
2018-09-19T03:02:50.453Z,68.10
2018-09-19T03:05:26.893Z,68.10
2018-09-19T03:08:03.312Z,68.10
2018-09-19T03:10:39.795Z,68.40
2018-09-19T03:13:16.266Z,68.30
2018-09-19T03:15:52.753Z,68.50
2018-09-19T03:18:29.198Z,68.70
2018-09-19T03:21:05.859Z,69.20
2018-09-19T03:23:42.190Z,68.40
2018-09-19T03:26:18.682Z,68.50
2018-09-19T03:28:55.168Z,68.40
2018-09-19T03:31:31.492Z,68.60
2018-09-19T03:34:07.911Z,69.00
2018-09-19T03:36:44.386Z,68.60
2018-09-19T03:39:20.824Z,69.00
2018-09-19T03:41:57.302Z,69.40
2018-09-19T03:44:33.806Z,69.40
2018-09-19T03:47:10.520Z,69.70
2018-09-19T03:49:47.250Z,69.90
2018-09-19T03:52:23.893Z,70.40
2018-09-19T03:55:00.404Z,70.80
2018-09-19T03:57:36.867Z,70.70
2018-09-19T04:00:13.306Z,70.40
2018-09-19T04:02:49.714Z,70.40
2018-09-19T04:05:26.128Z,70.70
2018-09-19T04:08:02.446Z,71.00
2018-09-19T04:10:38.964Z,71.50
2018-09-19T04:13:15.785Z,71.30
2018-09-19T04:15:52.249Z,71.50
2018-09-19T04:18:28.698Z,71.80
2018-09-19T04:21:05.195Z,72.20
2018-09-19T04:23:41.706Z,72.40
2018-09-19T04:26:18.182Z,72.80
2018-09-19T04:28:54.639Z,72.60
2018-09-19T04:31:31.154Z,73.20
2018-09-19T04:34:07.785Z,72.70
2018-09-19T04:36:44.327Z,73.90
2018-09-19T04:39:20.738Z,73.80
2018-09-19T04:41:57.215Z,73.60
2018-09-19T04:44:33.712Z,73.70
2018-09-19T04:47:10.226Z,73.60
2018-09-19T04:49:46.673Z,73.60
2018-09-19T04:52:23.210Z,74.30
2018-09-19T04:54:59.732Z,74.30
2018-09-19T04:57:36.091Z,74.40
2018-09-19T05:00:12.592Z,75.80
2018-09-19T05:02:48.932Z,75.70
2018-09-19T05:05:25.260Z,74.70
2018-09-19T05:08:01.719Z,74.30
2018-09-19T05:10:38.124Z,74.60
2018-09-19T05:13:14.622Z,74.80
2018-09-19T05:15:51.243Z,74.60
2018-09-19T05:18:27.508Z,74.30
2018-09-19T05:21:03.935Z,74.20
2018-09-19T05:23:40.326Z,74.20
2018-09-19T05:26:16.699Z,74.30
2018-09-19T05:28:53.222Z,75.50
2018-09-19T05:31:29.699Z,74.90
2018-09-19T05:34:06.053Z,74.80
2018-09-19T05:36:42.567Z,74.60
2018-09-19T05:39:19.106Z,74.40
2018-09-19T05:41:55.637Z,74.70
2018-09-19T05:44:32.022Z,73.60
2018-09-19T05:47:08.353Z,72.40
2018-09-19T05:49:44.659Z,72.90
2018-09-19T05:52:25.388Z,71.40
2018-09-19T05:55:01.660Z,69.80
2018-09-19T05:57:38.112Z,69.20
2018-09-19T06:00:14.535Z,68.20
2018-09-19T06:02:50.925Z,69.20
2018-09-19T06:05:27.627Z,68.00
2018-09-19T06:08:04.007Z,67.40
2018-09-19T06:10:40.438Z,65.90
2018-09-19T06:13:16.939Z,64.60
2018-09-19T06:15:53.375Z,62.90
2018-09-19T06:18:29.909Z,59.80
2018-09-19T06:21:06.445Z,58.50
2018-09-19T06:23:42.695Z,56.80
2018-09-19T06:26:19.146Z,56.80
2018-09-19T06:28:55.670Z,55.90
2018-09-19T06:31:32.069Z,55.00
2018-09-19T06:34:08.454Z,54.20
2018-09-19T06:36:44.803Z,53.50
2018-09-19T06:39:21.242Z,51.50
2018-09-19T06:41:57.754Z,50.70
2018-09-19T06:44:34.045Z,50.50
2018-09-19T06:47:10.244Z,50.20
2018-09-19T06:49:46.849Z,50.20
2018-09-19T06:52:23.551Z,50.00
2018-09-19T06:54:59.939Z,49.70
2018-09-19T06:57:36.495Z,49.50
2018-09-19T07:00:12.975Z,49.50
2018-09-19T07:02:49.287Z,47.90
2018-09-19T07:05:25.757Z,47.50
2018-09-19T07:08:02.275Z,47.10
2018-09-19T07:10:38.834Z,46.00
2018-09-19T07:13:15.196Z,45.60
2018-09-19T07:15:51.759Z,45.00
2018-09-19T07:18:28.114Z,44.00
2018-09-19T07:21:04.594Z,44.20
2018-09-19T07:23:41.222Z,43.50
2018-09-19T07:26:17.596Z,42.70
2018-09-19T07:28:54.124Z,43.10
2018-09-19T07:31:30.691Z,43.40
2018-09-19T07:34:07.440Z,43.50
2018-09-19T07:36:43.797Z,42.70
2018-09-19T07:39:20.532Z,43.20
2018-09-19T07:41:56.956Z,43.10
2018-09-19T07:44:33.429Z,42.00
2018-09-19T07:47:09.806Z,41.30
2018-09-19T07:49:46.121Z,39.80
2018-09-19T07:52:22.586Z,40.80
2018-09-19T07:54:58.923Z,39.70
2018-09-19T07:57:35.456Z,39.60
2018-09-19T08:00:11.761Z,39.50
2018-09-19T08:02:48.243Z,38.80
2018-09-19T08:05:24.772Z,38.80
2018-09-19T08:08:01.163Z,38.40
2018-09-19T08:10:37.667Z,38.80
2018-09-19T08:13:14.170Z,38.50
2018-09-19T08:15:50.455Z,38.90
2018-09-19T08:18:26.990Z,38.10
2018-09-19T08:21:03.768Z,37.50
2018-09-19T08:23:40.255Z,37.20
2018-09-19T08:26:16.652Z,36.60
2018-09-19T08:28:53.016Z,36.30
2018-09-19T08:31:29.505Z,35.90
2018-09-19T08:34:06.039Z,35.70
2018-09-19T08:36:42.472Z,35.90
2018-09-19T08:39:18.846Z,36.70
2018-09-19T08:41:55.413Z,36.70
2018-09-19T08:44:31.824Z,36.60
2018-09-19T08:47:08.276Z,36.40
2018-09-19T08:49:44.688Z,36.30
2018-09-19T08:52:21.144Z,36.10
2018-09-19T08:54:57.647Z,36.70
2018-09-19T08:57:34.100Z,36.80
2018-09-19T09:00:11.241Z,36.00
2018-09-19T09:02:47.657Z,35.20
2018-09-19T09:05:24.184Z,34.80
2018-09-19T09:08:00.510Z,33.50
2018-09-19T09:10:37.020Z,34.50
2018-09-19T09:13:13.666Z,34.50
2018-09-19T09:15:50.682Z,33.80
2018-09-19T09:18:27.178Z,33.30
2018-09-19T09:21:03.542Z,33.90
2018-09-19T09:23:40.856Z,34.30
2018-09-19T09:26:17.356Z,33.90
2018-09-19T09:28:53.685Z,33.80
2018-09-19T09:31:30.955Z,33.10
2018-09-19T09:34:07.494Z,32.40
2018-09-19T09:36:43.825Z,32.40
2018-09-19T09:39:20.588Z,32.60
2018-09-19T09:41:57.053Z,33.40
2018-09-19T09:44:33.532Z,33.70
2018-09-19T09:47:09.989Z,32.70
2018-09-19T09:49:46.511Z,32.70
2018-09-19T09:52:22.954Z,32.10
2018-09-19T09:54:59.457Z,33.10
2018-09-19T09:57:35.679Z,33.80
2018-09-19T10:00:12.321Z,32.80
2018-09-19T10:02:48.900Z,33.20
2018-09-19T10:05:25.283Z,33.20
2018-09-19T10:08:01.754Z,31.80
2018-09-19T10:10:39.075Z,31.80
2018-09-19T10:13:15.511Z,31.90
2018-09-19T10:15:51.979Z,31.90
2018-09-19T10:18:28.479Z,31.60
2018-09-19T10:21:05.072Z,32.10
2018-09-19T10:23:41.493Z,32.00
2018-09-19T10:26:17.898Z,32.40
2018-09-19T10:28:54.183Z,31.40
2018-09-19T10:31:30.705Z,31.10
2018-09-19T10:34:07.248Z,29.90
2018-09-19T10:36:43.715Z,30.00
2018-09-19T10:39:20.185Z,30.60
2018-09-19T10:41:56.660Z,30.50
2018-09-19T10:44:33.157Z,31.10
2018-09-19T10:47:09.589Z,30.60
2018-09-19T10:49:46.932Z,31.00
2018-09-19T10:52:23.790Z,30.20
2018-09-19T10:55:00.273Z,28.90
2018-09-19T10:57:36.793Z,29.20
2018-09-19T11:00:13.316Z,31.00
2018-09-19T11:02:49.750Z,30.50
2018-09-19T11:05:26.536Z,31.00
2018-09-19T11:08:06.561Z,30.30
2018-09-19T11:10:43.076Z,30.40
2018-09-19T11:13:19.490Z,29.50
2018-09-19T11:15:55.951Z,30.20
2018-09-19T11:18:32.438Z,30.10
2018-09-19T11:21:08.867Z,30.50
2018-09-19T11:23:45.418Z,29.90
2018-09-19T11:26:21.785Z,30.20
2018-09-19T11:28:58.215Z,30.60
2018-09-19T11:31:34.687Z,30.70
2018-09-19T11:34:11.150Z,30.70
2018-09-19T11:36:47.663Z,31.40
2018-09-19T11:39:24.068Z,30.80
2018-09-19T11:42:00.567Z,31.40
2018-09-19T11:44:37.026Z,30.70
2018-09-19T11:47:13.490Z,30.10
2018-09-19T11:49:50.294Z,29.90
2018-09-19T11:52:26.581Z,30.50
2018-09-19T11:55:03.100Z,30.30
2018-09-19T11:57:39.594Z,30.20
2018-09-19T12:00:15.872Z,30.10
2018-09-19T12:02:53.412Z,30.70
2018-09-19T12:05:29.804Z,31.00
2018-09-19T12:08:06.487Z,31.90
2018-09-19T12:10:42.874Z,30.90
2018-09-19T12:13:19.364Z,30.90
2018-09-19T12:15:55.872Z,31.40
2018-09-19T12:18:32.314Z,31.90
2018-09-19T12:21:08.790Z,31.00
2018-09-19T12:23:45.335Z,30.40
2018-09-19T12:26:21.813Z,30.40
2018-09-19T12:28:58.178Z,30.30
2018-09-19T12:31:34.644Z,30.30
2018-09-19T12:34:11.290Z,30.50
2018-09-19T12:36:47.725Z,30.90
2018-09-19T12:39:24.148Z,30.70
2018-09-19T12:42:00.664Z,30.90
2018-09-19T12:44:37.069Z,30.50
2018-09-19T12:47:13.598Z,30.50
2018-09-19T12:49:50.612Z,30.70
2018-09-19T12:52:26.978Z,31.40
2018-09-19T12:55:03.436Z,31.00
2018-09-19T12:57:39.807Z,30.70
2018-09-19T13:00:16.196Z,31.90
2018-09-19T13:02:52.559Z,30.50
2018-09-19T13:05:29.010Z,31.10
2018-09-19T13:08:05.364Z,30.60
2018-09-19T13:10:41.850Z,31.40
2018-09-19T13:13:18.335Z,30.30
2018-09-19T13:15:54.714Z,31.00
2018-09-19T13:18:31.143Z,30.80
2018-09-19T13:21:07.520Z,30.70
2018-09-19T13:23:43.957Z,29.70
2018-09-19T13:26:20.530Z,29.40
2018-09-19T13:28:57.030Z,29.30
2018-09-19T13:31:33.495Z,29.50
2018-09-19T13:34:09.963Z,29.50
2018-09-19T13:36:46.435Z,30.00
2018-09-19T13:39:22.751Z,30.30
2018-09-19T13:41:59.246Z,30.60
2018-09-19T13:44:35.778Z,30.30
2018-09-19T13:47:12.255Z,30.30
2018-09-19T13:49:53.101Z,30.70
2018-09-19T13:52:29.354Z,31.00
2018-09-19T13:55:06.531Z,31.00
2018-09-19T13:57:42.832Z,30.70
2018-09-19T14:00:19.209Z,31.00
2018-09-19T14:02:55.720Z,31.40
2018-09-19T14:05:32.042Z,31.40
2018-09-19T14:08:08.756Z,31.00
2018-09-19T14:10:45.255Z,31.20
2018-09-19T14:13:21.491Z,31.00
2018-09-19T14:15:57.922Z,30.90
2018-09-19T14:18:34.426Z,30.90
2018-09-19T14:21:10.886Z,30.50
2018-09-19T14:23:47.385Z,30.50
2018-09-19T14:26:24.053Z,30.70
2018-09-19T14:29:00.442Z,31.40
2018-09-19T14:31:36.864Z,31.40
2018-09-19T14:34:13.635Z,31.60
2018-09-19T14:36:49.993Z,31.90
2018-09-19T14:39:26.443Z,31.50
2018-09-19T14:42:02.836Z,31.70
2018-09-19T14:44:39.307Z,31.00
2018-09-19T14:47:15.818Z,30.80
2018-09-19T14:49:52.322Z,30.90
2018-09-19T14:52:28.871Z,31.10
2018-09-19T14:55:05.534Z,31.20
2018-09-19T14:57:41.874Z,31.10
2018-09-19T15:00:18.231Z,31.20
2018-09-19T15:02:54.497Z,31.40
2018-09-19T15:05:31.108Z,31.10
2018-09-19T15:08:07.636Z,30.80
2018-09-19T15:10:44.092Z,31.50
2018-09-19T15:13:20.545Z,31.70
2018-09-19T15:15:57.046Z,31.60
2018-09-19T15:18:33.508Z,31.90
2018-09-19T15:21:09.976Z,31.70
2018-09-19T15:23:46.470Z,31.70
2018-09-19T15:26:22.912Z,31.40
2018-09-19T15:28:59.832Z,31.40
2018-09-19T15:31:36.335Z,31.30
2018-09-19T15:34:12.819Z,31.40
2018-09-19T15:36:49.272Z,30.90
2018-09-19T15:39:25.560Z,31.00
2018-09-19T15:42:01.973Z,31.30
2018-09-19T15:44:38.484Z,31.40
2018-09-19T15:47:14.883Z,31.40
2018-09-19T15:49:51.318Z,30.80
2018-09-19T15:52:27.751Z,30.90
2018-09-19T15:55:05.066Z,30.90
2018-09-19T15:57:41.412Z,31.10
2018-09-19T16:00:18.335Z,31.10
2018-09-19T16:02:54.994Z,30.80
2018-09-19T16:05:31.305Z,30.90
2018-09-19T16:08:07.746Z,30.90
2018-09-19T16:10:44.425Z,31.20
2018-09-19T16:13:20.794Z,30.80
2018-09-19T16:15:57.254Z,30.80
2018-09-19T16:18:33.613Z,30.70
2018-09-19T16:21:10.065Z,30.60
2018-09-19T16:23:46.536Z,30.90
2018-09-19T16:26:23.049Z,31.10
2018-09-19T16:28:59.388Z,31.40
2018-09-19T16:31:35.906Z,31.30
2018-09-19T16:34:12.407Z,31.40
2018-09-19T16:36:48.832Z,31.20
2018-09-19T16:39:25.338Z,31.50
2018-09-19T16:42:01.642Z,31.40
2018-09-19T16:44:38.078Z,31.90
2018-09-19T16:47:14.561Z,31.90
2018-09-19T16:49:51.166Z,31.80
2018-09-19T16:52:27.573Z,32.10
2018-09-19T16:55:03.944Z,32.80
2018-09-19T16:57:40.294Z,32.50
2018-09-19T17:00:17.062Z,32.80
2018-09-19T17:02:53.310Z,32.70
2018-09-19T17:05:29.877Z,32.80
2018-09-19T17:08:06.608Z,32.50
2018-09-19T17:10:42.936Z,32.70
2018-09-19T17:13:19.387Z,32.90
2018-09-19T17:15:55.809Z,33.30
2018-09-19T17:18:32.120Z,33.40
2018-09-19T17:21:08.584Z,33.60
2018-09-19T17:23:45.193Z,34.00
2018-09-19T17:26:21.653Z,34.10
2018-09-19T17:28:58.138Z,34.30
2018-09-19T17:31:34.471Z,34.50
2018-09-19T17:34:10.862Z,34.70
2018-09-19T17:36:47.351Z,34.80
2018-09-19T17:39:23.805Z,35.10
2018-09-19T17:42:00.315Z,34.80
2018-09-19T17:44:36.592Z,35.00
2018-09-19T17:47:13.052Z,34.70
2018-09-19T17:49:49.481Z,35.10
2018-09-19T17:52:25.936Z,35.30
2018-09-19T17:55:02.391Z,35.20
2018-09-19T17:57:39.017Z,35.10
2018-09-19T18:00:15.583Z,35.50
2018-09-19T18:02:52.067Z,35.50
2018-09-19T18:05:28.456Z,35.80
2018-09-19T18:08:05.059Z,35.70
2018-09-19T18:10:41.647Z,36.00
2018-09-19T18:13:17.958Z,36.40
2018-09-19T18:15:54.366Z,37.60
2018-09-19T18:18:30.651Z,36.80
2018-09-19T18:21:07.555Z,36.90
2018-09-19T18:23:44.587Z,37.50
2018-09-19T18:26:21.299Z,37.30
2018-09-19T18:28:57.760Z,37.10
2018-09-19T18:31:34.270Z,37.10
2018-09-19T18:34:11.301Z,37.30
2018-09-19T18:36:47.801Z,37.30
2018-09-19T18:39:24.348Z,37.50
2018-09-19T18:42:00.894Z,38.40
2018-09-19T18:44:37.476Z,38.00
2018-09-19T18:47:13.918Z,38.00
2018-09-19T18:49:50.422Z,38.30
2018-09-19T18:52:26.723Z,38.40
2018-09-19T18:55:03.183Z,38.90
2018-09-19T18:57:39.620Z,39.20
2018-09-19T19:00:16.311Z,39.60
2018-09-19T19:02:52.593Z,39.60
2018-09-19T19:05:29.050Z,39.30
2018-09-19T19:08:05.762Z,39.70
2018-09-19T19:10:42.235Z,39.80
2018-09-19T19:13:18.657Z,39.90
2018-09-19T19:16:01.928Z,40.60
2018-09-19T19:18:38.249Z,40.40
2018-09-19T19:21:14.536Z,40.40
2018-09-19T19:23:51.003Z,40.70
2018-09-19T19:26:27.531Z,40.90
2018-09-19T19:29:04.049Z,41.00
2018-09-19T19:31:40.662Z,41.20
2018-09-19T19:34:16.939Z,41.50
2018-09-19T19:36:53.510Z,42.10
2018-09-19T19:39:30.024Z,42.00
2018-09-19T19:42:06.453Z,43.10
2018-09-19T19:44:42.859Z,42.50
2018-09-19T19:47:19.252Z,42.80
2018-09-19T19:49:55.684Z,42.80
2018-09-19T19:52:32.125Z,43.40
2018-09-19T19:55:08.631Z,43.90
2018-09-19T19:57:46.158Z,44.20
2018-09-19T20:00:22.486Z,44.30
2018-09-19T20:02:59.622Z,44.70
2018-09-19T20:05:36.803Z,44.20
2018-09-19T20:08:13.054Z,43.90
2018-09-19T20:10:49.536Z,43.90
2018-09-19T20:13:26.051Z,44.30
2018-09-19T20:16:02.484Z,44.30
2018-09-19T20:18:39.006Z,44.40
2018-09-19T20:21:15.531Z,44.50
2018-09-19T20:23:51.985Z,44.60
2018-09-19T20:26:28.596Z,44.80
2018-09-19T20:29:05.067Z,45.00
2018-09-19T20:31:41.472Z,45.20
2018-09-19T20:34:17.987Z,45.50
2018-09-19T20:36:54.318Z,45.40
2018-09-19T20:39:30.770Z,45.50
2018-09-19T20:42:07.265Z,46.00
2018-09-19T20:44:43.816Z,45.90
2018-09-19T20:47:20.484Z,45.70
2018-09-19T20:49:56.990Z,45.80
2018-09-19T20:52:33.760Z,45.60
2018-09-19T20:55:10.128Z,45.60
2018-09-19T20:57:46.528Z,46.30
2018-09-19T21:00:22.946Z,47.50
2018-09-19T21:02:59.599Z,46.20
2018-09-19T21:05:36.108Z,46.10
2018-09-19T21:08:12.578Z,46.40
2018-09-19T21:10:49.062Z,46.50
2018-09-19T21:13:25.468Z,46.80
2018-09-19T21:16:01.950Z,47.40
2018-09-19T21:18:38.562Z,48.50
2018-09-19T21:21:14.915Z,48.40
2018-09-19T21:23:51.175Z,48.10
2018-09-19T21:26:27.570Z,48.00
2018-09-19T21:29:03.880Z,48.10
2018-09-19T21:31:40.365Z,49.10
2018-09-19T21:34:17.032Z,49.90
2018-09-19T21:36:53.481Z,49.80
2018-09-19T21:39:29.972Z,49.80
2018-09-19T21:42:06.469Z,50.20
2018-09-19T21:44:42.826Z,50.90
2018-09-19T21:47:19.267Z,50.40
2018-09-19T21:49:55.740Z,50.60
2018-09-19T21:52:32.192Z,50.40
2018-09-19T21:55:08.555Z,50.40
2018-09-19T21:57:45.039Z,50.70
2018-09-19T22:00:21.564Z,51.00
2018-09-19T22:02:58.072Z,51.20
2018-09-19T22:05:34.531Z,51.20
2018-09-19T22:08:10.815Z,51.30
2018-09-19T22:10:47.575Z,51.60
2018-09-19T22:13:24.071Z,51.40
2018-09-19T22:16:00.663Z,51.70
2018-09-19T22:18:37.067Z,51.90
2018-09-19T22:21:13.476Z,52.10
2018-09-19T22:23:49.913Z,52.10
2018-09-19T22:26:26.360Z,52.20
2018-09-19T22:29:02.815Z,51.90
2018-09-19T22:31:39.229Z,52.10
2018-09-19T22:34:15.668Z,52.50
2018-09-19T22:36:52.027Z,52.80
2018-09-19T22:39:28.491Z,52.90
2018-09-19T22:42:04.981Z,53.00
2018-09-19T22:44:41.229Z,53.10
2018-09-19T22:47:17.711Z,53.60
2018-09-19T22:49:54.172Z,53.40
2018-09-19T22:52:31.123Z,53.80
2018-09-19T22:55:07.661Z,53.80
2018-09-19T22:57:44.092Z,54.30
2018-09-19T23:00:20.458Z,54.60
2018-09-19T23:02:56.847Z,54.80
2018-09-19T23:05:33.291Z,55.10
2018-09-19T23:08:09.736Z,55.10
2018-09-19T23:10:46.198Z,55.30
2018-09-19T23:13:22.849Z,55.30
2018-09-19T23:15:59.126Z,55.60
2018-09-19T23:18:35.614Z,55.90
2018-09-19T23:21:12.040Z,56.10
2018-09-19T23:23:48.528Z,56.40
2018-09-19T23:26:25.012Z,57.00
2018-09-19T23:29:01.495Z,57.00
2018-09-19T23:31:37.975Z,56.70
2018-09-19T23:34:14.412Z,56.90
2018-09-19T23:36:50.884Z,57.60
2018-09-19T23:39:27.385Z,57.10
2018-09-19T23:42:04.140Z,57.30
2018-09-19T23:44:40.446Z,57.00
2018-09-19T23:47:16.855Z,57.30
2018-09-19T23:49:53.255Z,58.10
2018-09-19T23:52:29.698Z,57.90
2018-09-19T23:55:06.126Z,57.90
2018-09-19T23:57:42.437Z,57.50
